Time;durP1;ratioP1;P1;durP2;ratioP2;P2;SDS_P1;SDS_P2;PMS_P1;PMS_P2;Temp;Humidity;BMP_temperature;BMP_pressure;BME280_temperature;BME280_humidity;BME280_pressure;Samples;Min_cycle;Max_cycle;Signal;HPM_P1;HPM_P2
2024/01/19 00:10:22;;;;;;;5.05;2.27;;;-17.10;99.90;;;;;;1922752;73;25305;-89
2024/01/19 00:21:34;;;;;;;4.30;2.77;;;-17.00;99.90;;;;;;1935941;73;25279;-89
2024/01/19 00:25:12;;;;;;;5.62;2.52;;;-16.90;99.90;;;;;;1916943;73;26501;-88
2024/01/19 00:40:19;;;;;;;5.45;2.60;;;-16.90;99.90;;;;;;1922794;73;25266;-89
2024/01/19 01:05:59;;;;;;;9.95;2.55;;;-16.10;99.90;;;;;;1964739;71;25232;-90
2024/01/19 01:28:10;;;;;;;5.97;2.50;;;-15.40;99.90;;;;;;1930483;74;25303;-89
2024/01/19 01:35:04;;;;;;;12.73;1.90;;;-15.30;99.90;;;;;;1964313;71;25218;-89
2024/01/19 01:38:00;;;;;;;6.92;2.47;;;-15.20;99.90;;;;;;1961430;72;25620;-89
2024/01/19 02:00:10;;;;;;;3.00;1.05;;;-15.70;99.90;;;;;;1959506;72;25356;-89
2024/01/19 02:03:34;;;;;;;1.55;1.17;;;-15.70;99.90;;;;;;1983696;71;25186;-89
2024/01/19 02:13:46;;;;;;;2.00;1.40;;;-15.40;99.90;;;;;;1904053;75;25259;-89
2024/01/19 02:45:10;;;;;;;6.15;2.37;;;-16.30;99.90;;;;;;1947225;72;28777;-89
2024/01/19 03:33:10;;;;;;;2.35;1.37;;;-17.50;99.90;;;;;;1952398;72;27058;-89
2024/01/19 03:36:47;;;;;;;0.40;0.40;;;-17.50;99.90;;;;;;1920082;73;25222;-89
2024/01/19 03:43:37;;;;;;;1.00;0.90;;;-17.80;99.90;;;;;;1923202;73;25268;-88
2024/01/19 03:46:37;;;;;;;0.50;0.50;;;-17.70;99.90;;;;;;1888407;73;25815;-89
2024/01/19 03:49:51;;;;;;;0.47;0.47;;;-17.80;99.90;;;;;;1905391;75;25777;-89
2024/01/19 03:52:59;;;;;;;3.80;1.25;;;-17.90;99.90;;;;;;1916943;73;25229;-89
2024/01/19 03:56:09;;;;;;;0.82;0.82;;;-18.00;99.90;;;;;;1922130;73;25234;-88
2024/01/19 03:59:06;;;;;;;0.80;0.80;;;-18.20;99.90;;;;;;1912668;74;25288;-88
2024/01/19 04:02:00;;;;;;;1.52;1.15;;;-18.30;99.90;;;;;;1911567;73;25171;-88
2024/01/19 04:04:58;;;;;;;1.00;0.88;;;-18.30;99.90;;;;;;1918683;73;25215;-88
2024/01/19 04:08:19;;;;;;;2.22;1.07;;;-18.40;99.90;;;;;;1905769;73;25299;-88
2024/01/19 04:11:28;;;;;;;1.55;1.15;;;-18.50;99.90;;;;;;1894744;75;25373;-88
2024/01/19 04:14:23;;;;;;;4.87;1.00;;;-18.40;99.90;;;;;;1889615;75;25229;-88
2024/01/19 04:17:28;;;;;;;1.20;0.75;;;-18.40;99.90;;;;;;1885210;75;25662;-89
2024/01/19 04:20:26;;;;;;;3.10;1.37;;;-18.40;99.90;;;;;;1914717;75;25655;-88
2024/01/19 04:23:21;;;;;;;2.50;1.05;;;-18.40;99.90;;;;;;1883541;75;25306;-91
2024/01/19 04:26:31;;;;;;;1.37;0.93;;;-18.30;99.90;;;;;;1897045;75;25710;-88
2024/01/19 04:29:26;;;;;;;0.20;0.20;;;-18.30;99.90;;;;;;1897869;75;25230;-89
2024/01/19 04:32:17;;;;;;;1.42;1.30;;;-18.60;99.90;;;;;;1864575;75;25379;-88
2024/01/19 04:35:11;;;;;;;1.45;1.45;;;-18.90;99.90;;;;;;1874037;76;25289;-88
2024/01/19 04:38:06;;;;;;;1.12;1.10;;;-18.90;99.90;;;;;;1852720;76;25319;-88
2024/01/19 04:41:19;;;;;;;0.47;0.47;;;-18.80;99.90;;;;;;1865936;76;25324;-88
2024/01/19 04:44:10;;;;;;;1.12;1.02;;;-18.80;99.90;;;;;;1849743;76;25210;-88
2024/01/19 04:47:06;;;;;;;1.37;1.12;;;-18.80;99.90;;;;;;1852796;76;25744;-88
2024/01/19 04:49:56;;;;;;;2.65;1.15;;;-18.80;99.90;;;;;;1847905;77;25265;-89
2024/01/19 04:52:51;;;;;;;1.80;1.00;;;-18.90;99.90;;;;;;1869246;76;25261;-89
2024/01/19 04:55:46;;;;;;;1.22;1.00;;;-19.00;99.90;;;;;;1876825;76;25323;-88
2024/01/19 04:58:37;;;;;;;3.65;1.00;;;-19.00;99.90;;;;;;1862501;76;25298;-88
2024/01/19 05:17:40;;;;;;;3.50;2.22;;;-19.00;99.90;;;;;;1984024;71;26960;-88
2024/01/19 05:20:33;;;;;;;1.77;1.02;;;-19.10;99.90;;;;;;2018955;69;25640;-88
2024/01/19 05:23:23;;;;;;;2.27;0.95;;;-19.20;99.90;;;;;;1987211;70;25196;-88
2024/01/19 05:26:15;;;;;;;8.13;1.40;;;-19.20;99.90;;;;;;2025480;70;25227;-88
2024/01/19 05:29:10;;;;;;;1.30;1.02;;;-19.20;99.90;;;;;;1958273;72;25620;-88
2024/01/19 05:32:07;;;;;;;1.40;0.95;;;-19.10;99.90;;;;;;2001229;71;25144;-88
2024/01/19 05:35:08;;;;;;;0.90;0.85;;;-19.10;99.90;;;;;;1954871;72;25245;-88
2024/01/19 05:37:58;;;;;;;0.72;0.72;;;-19.30;99.90;;;;;;1924761;73;25282;-88
2024/01/19 05:40:49;;;;;;;1.65;0.75;;;-19.30;99.90;;;;;;1979713;72;25196;-88
2024/01/19 05:43:40;;;;;;;2.20;1.27;;;-19.30;99.90;;;;;;1990872;71;25270;-88
2024/01/19 06:19:27;;;;;;;5.58;2.20;;;-19.30;99.90;;;;;;1986985;71;26280;-88
2024/01/19 06:22:18;;;;;;;4.83;1.85;;;-19.70;99.90;;;;;;1967419;71;25683;-89
2024/01/19 06:25:14;;;;;;;3.12;1.65;;;-19.70;99.90;;;;;;2074701;68;25720;-88
2024/01/19 06:28:06;;;;;;;7.70;1.62;;;-19.70;99.90;;;;;;2040567;69;25651;-88
2024/01/19 06:30:56;;;;;;;1.70;1.60;;;-19.60;99.90;;;;;;2066964;68;25705;-89
2024/01/19 06:33:46;;;;;;;1.22;1.22;;;-19.60;99.90;;;;;;2059105;68;25202;-88
2024/01/19 06:36:37;;;;;;;4.90;1.22;;;-19.50;99.90;;;;;;2065236;68;25269;-88
2024/01/19 06:39:25;;;;;;;0.47;0.47;;;-19.40;99.90;;;;;;2051659;68;25279;-87
2024/01/19 07:09:33;;;;;;;0.65;0.65;;;-19.00;99.90;;;;;;1952863;71;26277;-89
2024/01/19 07:16:12;;;;;;;1.25;1.17;;;-19.00;99.90;;;;;;1936475;72;25208;-88
2024/01/19 07:46:36;;;;;;;12.07;3.60;;;-19.10;99.90;;;;;;1969702;71;27696;-87
2024/01/19 08:04:14;;;;;;;1.17;1.00;;;-19.30;99.90;;;;;;1905913;75;25320;-88
2024/01/19 08:14:35;;;;;;;0.88;0.88;;;-19.20;99.90;;;;;;1909106;75;25730;-89
2024/01/19 08:17:24;;;;;;;1.10;1.00;;;-19.30;99.90;;;;;;1909725;75;25733;-88
2024/01/19 09:31:26;;;;;;;5.25;2.72;;;-16.30;99.90;;;;;;1912263;72;26105;-89
2024/01/19 09:37:28;;;;;;;8.93;1.77;;;-16.40;99.90;;;;;;1964494;72;27381;-89
2024/01/19 09:40:19;;;;;;;4.28;1.82;;;-16.40;99.90;;;;;;1947152;73;25241;-89
2024/01/19 09:43:08;;;;;;;6.70;3.98;;;-16.50;99.90;;;;;;1921879;72;25238;-89
2024/01/19 10:18:21;;;;;;;10.33;3.83;;;-16.70;99.90;;;;;;2089238;68;27564;-89
2024/01/19 10:21:12;;;;;;;1.50;1.30;;;-16.30;99.90;;;;;;2024375;71;25751;-89
2024/01/19 10:24:14;;;;;;;5.80;3.45;;;-16.20;99.90;;;;;;2000840;69;25701;-88
2024/01/19 10:28:10;;;;;;;6.25;2.17;;;-16.10;99.90;;;;;;2006019;71;25807;-88
2024/01/19 10:31:29;;;;;;;9.05;2.08;;;-16.00;99.90;;;;;;1995202;71;25198;-88
2024/01/19 11:07:40;;;;;;;5.97;2.80;;;-14.90;99.90;;;;;;1936955;72;27509;-89
2024/01/19 12:13:00;;;;;;;4.43;1.53;;;-14.20;99.90;;;;;;1954197;71;25396;-90
2024/01/19 13:30:11;;;;;;;0.87;0.87;;;-14.10;99.90;;;;;;1955574;72;27816;-90
2024/01/19 13:33:42;;;;;;;2.90;2.20;;;-14.10;99.90;;;;;;1915383;73;25421;-90
2024/01/19 14:21:44;;;;;;;11.20;3.33;;;-15.10;99.90;;;;;;1933552;74;29372;-90
2024/01/19 16:38:54;;;;;;;15.97;6.43;;;-15.10;99.90;;;;;;1943216;72;27672;-90
2024/01/19 17:20:37;;;;;;;3.05;2.33;;;-16.00;99.90;;;;;;1851328;76;25706;-90
2024/01/19 17:29:52;;;;;;;11.83;4.60;;;-16.20;99.90;;;;;;1961626;72;27453;-89
2024/01/19 17:50:13;;;;;;;26.23;6.92;;;-16.40;99.90;;;;;;1935560;72;27080;-90
2024/01/19 18:28:40;;;;;;;13.40;4.75;;;-16.80;99.90;;;;;;1934072;72;27682;-89
2024/01/19 18:31:56;;;;;;;11.88;3.92;;;-16.80;99.90;;;;;;1921471;74;25162;-89
2024/01/19 18:34:46;;;;;;;12.85;3.35;;;-16.80;99.90;;;;;;1930673;73;25227;-89
2024/01/19 18:37:38;;;;;;;30.88;8.38;;;-16.80;99.90;;;;;;1923893;73;25817;-89
2024/01/19 18:40:28;;;;;;;9.35;3.05;;;-16.80;99.90;;;;;;1917281;74;25296;-89
2024/01/19 18:49:45;;;;;;;11.45;3.60;;;-16.90;99.90;;;;;;1828996;76;25188;-89
2024/01/19 18:52:42;;;;;;;4.10;2.22;;;-16.90;99.90;;;;;;1869421;76;25208;-88
2024/01/19 18:55:31;;;;;;;11.65;3.58;;;-17.00;99.90;;;;;;1912031;74;25781;-88
2024/01/19 19:18:37;;;;;;;3.25;1.37;;;-17.10;99.90;;;;;;1905263;74;27068;-89
2024/01/19 19:21:32;;;;;;;1.05;0.98;;;-17.10;99.90;;;;;;1886940;75;25244;-89
2024/01/19 19:24:28;;;;;;;0.45;0.45;;;-17.00;99.90;;;;;;1889036;75;25242;-89
2024/01/19 21:12:28;;;;;;;6.78;3.27;;;-17.40;99.90;;;;;;1987586;71;27631;-90
2024/01/19 21:16:11;;;;;;;1.22;1.12;;;-17.00;99.90;;;;;;2016137;70;25664;-91
2024/01/19 22:35:07;;;;;;;6.50;1.72;;;-15.80;99.90;;;;;;1961153;72;28769;-89
2024/01/19 22:38:03;;;;;;;2.47;1.25;;;-15.80;99.90;;;;;;1920882;73;25240;-90
2024/01/19 22:40:57;;;;;;;2.20;1.42;;;-15.70;99.90;;;;;;1917351;73;25172;-90
2024/01/19 22:43:56;;;;;;;2.98;1.98;;;-15.70;99.90;;;;;;1894196;73;25270;-90
2024/01/19 22:46:53;;;;;;;1.25;1.15;;;-15.80;99.90;;;;;;1922660;73;25869;-90
2024/01/19 22:49:44;;;;;;;2.08;1.30;;;-15.80;99.90;;;;;;1918435;73;25182;-90
2024/01/19 22:52:38;;;;;;;1.17;1.05;;;-15.80;99.90;;;;;;1911386;73;25229;-90
2024/01/19 22:55:29;;;;;;;3.30;1.15;;;-15.80;99.90;;;;;;1933341;73;25291;-90
2024/01/19 22:58:35;;;;;;;0.60;0.60;;;-15.70;99.90;;;;;;1946330;73;25259;-90
2024/01/19 23:01:47;;;;;;;0.35;0.35;;;-15.70;99.90;;;;;;1938427;73;25676;-91
2024/01/19 23:04:55;;;;;;;1.05;0.98;;;-15.70;99.90;;;;;;1887184;75;25188;-90
2024/01/19 23:07:51;;;;;;;1.77;1.05;;;-15.70;99.90;;;;;;1931693;73;25643;-91
2024/01/19 23:10:46;;;;;;;2.95;0.88;;;-15.70;99.90;;;;;;1917549;73;25258;-91
2024/01/19 23:14:00;;;;;;;1.33;0.90;;;-15.60;99.90;;;;;;1918254;73;25216;-90
2024/01/19 23:17:01;;;;;;;5.85;1.25;;;-15.60;99.90;;;;;;1929733;73;26391;-89
2024/01/19 23:19:56;;;;;;;0.80;0.60;;;-15.70;99.90;;;;;;1926112;73;25187;-90
2024/01/19 23:22:52;;;;;;;0.93;0.88;;;-15.70;99.90;;;;;;1922251;73;25181;-89
2024/01/19 23:25:51;;;;;;;0.63;0.60;;;-15.70;99.90;;;;;;1929840;73;25242;-89
2024/01/19 23:28:42;;;;;;;4.03;0.82;;;-15.70;99.90;;;;;;1925892;73;25539;-89
2024/01/19 23:31:36;;;;;;;0.70;0.70;;;-15.70;99.90;;;;;;1921281;73;25723;-89
2024/01/19 23:38:05;;;;;;;0.88;0.80;;;-15.60;99.90;;;;;;1921281;74;25429;-90
2024/01/19 23:40:56;;;;;;;1.32;0.95;;;-15.60;99.90;;;;;;1907513;73;25220;-90
2024/01/19 23:43:54;;;;;;;1.90;0.90;;;-15.50;99.90;;;;;;1905168;74;25278;-90
